createdAt,value
2019-05-13T00:00:45.158Z,73.27
2019-05-13T00:03:16.697Z,73.33
2019-05-13T00:05:48.191Z,73.32
2019-05-13T00:08:21.660Z,73.30
2019-05-13T00:10:53.995Z,73.59
2019-05-13T00:13:25.048Z,73.35
2019-05-13T00:15:55.826Z,73.33
2019-05-13T00:18:26.931Z,73.56
2019-05-13T00:20:58.264Z,73.36
2019-05-13T00:23:29.636Z,73.32
2019-05-13T00:26:00.989Z,73.40
2019-05-13T00:28:34.298Z,73.45
2019-05-13T00:31:05.362Z,73.50
2019-05-13T00:33:36.836Z,73.45
2019-05-13T00:36:08.241Z,73.49
2019-05-13T00:38:39.690Z,73.60
2019-05-13T00:41:10.994Z,73.74
2019-05-13T00:43:44.424Z,73.95
2019-05-13T00:46:15.484Z,74.20
2019-05-13T00:48:46.988Z,74.30
2019-05-13T00:51:18.358Z,74.27
2019-05-13T00:53:49.693Z,74.23
2019-05-13T00:56:21.019Z,74.18
2019-05-13T00:58:54.138Z,74.35
2019-05-13T01:01:25.619Z,74.56
2019-05-13T01:03:57.030Z,74.73
2019-05-13T01:06:28.398Z,74.82
2019-05-13T01:08:59.801Z,74.86
2019-05-13T01:11:31.153Z,74.96
2019-05-13T01:14:04.243Z,75.02
2019-05-13T01:16:35.620Z,75.02
2019-05-13T01:19:07.033Z,75.09
2019-05-13T01:21:38.397Z,75.18
2019-05-13T01:24:09.741Z,75.08
2019-05-13T01:26:41.079Z,75.14
2019-05-13T01:29:13.504Z,75.37
2019-05-13T01:31:45.158Z,75.55
2019-05-13T01:34:16.514Z,75.63
2019-05-13T01:36:47.893Z,75.71
2019-05-13T01:39:19.358Z,75.78
2019-05-13T01:41:50.736Z,75.82
2019-05-13T01:44:24.219Z,75.86
2019-05-13T01:46:55.284Z,75.82
2019-05-13T01:49:26.701Z,75.71
2019-05-13T01:51:58.034Z,75.78
2019-05-13T01:54:29.450Z,75.87
2019-05-13T01:57:00.847Z,75.99
2019-05-13T01:59:34.667Z,76.02
2019-05-13T02:02:06.054Z,76.03
2019-05-13T02:04:37.491Z,76.12
2019-05-13T02:07:08.792Z,76.31
2019-05-13T02:09:40.318Z,76.34
2019-05-13T02:12:13.430Z,76.33
2019-05-13T02:14:45.189Z,76.33
2019-05-13T02:17:16.561Z,76.34
2019-05-13T02:19:47.970Z,76.37
2019-05-13T02:22:19.449Z,76.37
2019-05-13T02:24:50.875Z,76.43
2019-05-13T02:27:21.687Z,76.47
2019-05-13T02:29:54.007Z,76.67
2019-05-13T02:32:25.633Z,76.46
2019-05-13T02:34:57.055Z,76.57
2019-05-13T02:37:29.559Z,76.63
2019-05-13T02:40:03.624Z,76.62
2019-05-13T02:42:34.559Z,76.72
2019-05-13T02:45:06.178Z,76.80
2019-05-13T02:47:37.612Z,76.67
2019-05-13T02:50:12.240Z,76.70
2019-05-13T02:52:44.399Z,76.62
2019-05-13T02:55:15.347Z,76.57
2019-05-13T02:57:46.742Z,76.57
2019-05-13T03:00:18.232Z,76.64
2019-05-13T03:02:52.238Z,76.65
2019-05-13T03:05:21.911Z,76.88
2019-05-13T03:07:53.329Z,76.90
2019-05-13T03:10:24.099Z,76.50
2019-05-13T03:12:55.245Z,76.61
2019-05-13T03:15:27.797Z,76.45
2019-05-13T03:18:05.767Z,76.58
2019-05-13T03:20:37.207Z,76.41
2019-05-13T03:23:08.577Z,76.47
2019-05-13T03:25:42.896Z,76.58
2019-05-13T03:28:13.584Z,76.77
2019-05-13T03:30:46.318Z,76.88
2019-05-13T03:33:20.073Z,77.09
2019-05-13T03:35:55.799Z,77.31
2019-05-13T03:38:25.443Z,77.23
2019-05-13T03:40:57.145Z,77.13
2019-05-13T03:43:27.773Z,77.30
2019-05-13T03:45:58.902Z,77.84
2019-05-13T03:48:33.266Z,77.86
2019-05-13T03:51:03.431Z,78.22
2019-05-13T03:53:34.236Z,78.54
2019-05-13T03:56:05.336Z,78.66
2019-05-13T03:58:36.645Z,78.46
2019-05-13T04:01:07.987Z,78.52
2019-05-13T04:03:39.348Z,78.47
2019-05-13T04:06:13.555Z,78.56
2019-05-13T04:08:44.203Z,78.56
2019-05-13T04:11:15.974Z,78.60
2019-05-13T04:13:47.766Z,78.35
2019-05-13T04:16:19.025Z,78.20
2019-05-13T04:18:53.711Z,77.66
2019-05-13T04:21:23.693Z,77.28
2019-05-13T04:23:54.466Z,77.01
2019-05-13T04:26:25.594Z,77.00
2019-05-13T04:28:56.479Z,76.72
2019-05-13T04:31:27.658Z,76.51
2019-05-13T04:33:58.438Z,76.42
2019-05-13T04:36:32.004Z,76.44
2019-05-13T04:39:05.282Z,76.32
2019-05-13T04:41:36.772Z,76.25
2019-05-13T04:44:08.093Z,76.28
2019-05-13T04:46:43.090Z,76.09
2019-05-13T04:49:12.760Z,75.79
2019-05-13T04:51:43.661Z,75.36
2019-05-13T04:54:14.798Z,75.60
2019-05-13T04:56:46.472Z,75.55
2019-05-13T04:59:17.859Z,75.30
2019-05-13T05:02:37.429Z,75.12
2019-05-13T05:05:03.353Z,74.98
2019-05-13T05:08:03.120Z,74.75
2019-05-13T05:11:05.971Z,74.88
2019-05-13T05:13:43.035Z,74.88
2019-05-13T05:16:46.844Z,74.96
2019-05-13T05:19:44.980Z,74.90
2019-05-13T05:22:32.596Z,74.75
2019-05-13T05:25:12.884Z,74.58
2019-05-13T05:27:47.443Z,74.60
2019-05-13T05:30:38.454Z,74.65
2019-05-13T05:33:31.919Z,74.61
2019-05-13T05:36:21.934Z,74.35
2019-05-13T05:39:01.722Z,74.08
2019-05-13T05:41:34.547Z,73.94
2019-05-13T05:44:05.927Z,73.45
2019-05-13T05:46:42.790Z,73.25
2019-05-13T05:49:13.324Z,72.98
2019-05-13T05:51:44.677Z,73.11
2019-05-13T05:54:16.096Z,73.20
2019-05-13T05:56:47.468Z,73.09
2019-05-13T05:59:18.778Z,72.52
2019-05-13T06:01:52.537Z,72.45
2019-05-13T06:04:24.772Z,72.42
2019-05-13T06:06:56.056Z,71.99
2019-05-13T06:09:27.415Z,71.58
2019-05-13T06:11:58.798Z,71.46
2019-05-13T06:14:29.535Z,71.11
2019-05-13T06:17:02.630Z,71.01
2019-05-13T06:19:33.646Z,71.25
2019-05-13T06:22:05.002Z,70.70
2019-05-13T06:24:37.435Z,70.68
2019-05-13T06:27:08.773Z,70.61
2019-05-13T06:29:42.297Z,70.35
2019-05-13T06:32:21.552Z,69.98
2019-05-13T06:34:46.434Z,69.39
2019-05-13T06:37:17.749Z,68.32
2019-05-13T06:39:51.224Z,67.81
2019-05-13T06:42:22.411Z,68.02
2019-05-13T06:44:53.088Z,67.84
2019-05-13T06:47:24.198Z,67.71
2019-05-13T06:49:55.541Z,67.50
2019-05-13T06:52:26.989Z,66.74
2019-05-13T06:54:57.779Z,65.70
2019-05-13T06:57:28.996Z,65.49
2019-05-13T07:00:01.703Z,65.26
2019-05-13T07:02:32.697Z,65.87
2019-05-13T07:05:03.886Z,65.69
2019-05-13T07:07:35.139Z,65.98
2019-05-13T07:10:06.700Z,64.76
2019-05-13T07:12:37.762Z,64.98
2019-05-13T07:15:11.587Z,65.07
2019-05-13T07:17:43.318Z,64.51
2019-05-13T07:20:14.043Z,64.85
2019-05-13T07:22:45.185Z,65.42
2019-05-13T07:25:16.041Z,64.19
2019-05-13T07:27:47.180Z,64.30
2019-05-13T07:30:21.895Z,64.14
2019-05-13T07:32:53.305Z,62.43
2019-05-13T07:35:24.175Z,62.96
2019-05-13T07:37:55.355Z,62.15
2019-05-13T07:40:26.101Z,61.26
2019-05-13T07:42:57.328Z,62.24
2019-05-13T07:45:31.621Z,60.67
2019-05-13T07:48:02.847Z,59.46
2019-05-13T07:50:33.650Z,59.45
2019-05-13T07:53:04.727Z,59.79
2019-05-13T07:55:36.151Z,60.66
2019-05-13T07:58:06.911Z,57.42
2019-05-13T08:00:38.127Z,57.58
2019-05-13T08:03:12.038Z,57.68
2019-05-13T08:05:42.861Z,58.35
2019-05-13T08:08:13.692Z,58.67
2019-05-13T08:10:45.196Z,58.26
2019-05-13T08:13:22.467Z,56.31
2019-05-13T08:15:55.071Z,53.76
2019-05-13T08:18:26.757Z,55.44
2019-05-13T08:20:57.598Z,54.98
2019-05-13T08:23:28.786Z,55.53
2019-05-13T08:26:01.975Z,55.77
2019-05-13T08:28:32.664Z,56.34
2019-05-13T08:31:04.564Z,56.28
2019-05-13T08:33:36.097Z,56.35
2019-05-13T08:36:07.701Z,56.35
2019-05-13T08:38:39.598Z,54.64
2019-05-13T08:41:18.826Z,55.00
2019-05-13T08:43:45.339Z,53.36
2019-05-13T08:46:16.195Z,52.17
2019-05-13T08:48:47.344Z,52.65
2019-05-13T08:51:18.001Z,52.33
2019-05-13T08:53:51.620Z,51.60
2019-05-13T09:54:37.533Z,50.28
2019-05-13T09:57:14.374Z,50.47
2019-05-13T09:59:45.128Z,51.30
2019-05-13T10:02:16.169Z,51.04
2019-05-13T10:04:47.547Z,51.71
2019-05-13T10:07:18.241Z,52.02
2019-05-13T10:09:51.810Z,52.03
2019-05-13T10:12:24.402Z,52.19
2019-05-13T10:14:55.657Z,52.02
2019-05-13T10:17:26.417Z,52.27
2019-05-13T10:20:12.154Z,52.66
2019-05-13T10:22:43.556Z,51.83
2019-05-13T10:25:16.122Z,50.74
2019-05-13T10:27:47.167Z,51.45
2019-05-13T10:30:18.550Z,51.24
2019-05-13T10:32:52.531Z,51.40
2019-05-13T10:35:23.192Z,51.70
2019-05-13T10:37:54.318Z,50.04
2019-05-13T10:40:25.538Z,50.53
2019-05-13T10:42:56.918Z,50.69
2019-05-13T10:45:27.695Z,49.28
2019-05-13T10:47:58.784Z,48.43
2019-05-13T10:52:59.483Z,49.18
2019-05-13T10:55:32.477Z,49.52
2019-05-13T10:58:07.316Z,49.63
2019-05-13T11:00:51.722Z,49.30
2019-05-13T11:03:24.537Z,49.57
2019-05-13T11:05:55.343Z,49.14
2019-05-13T11:08:26.442Z,49.04
2019-05-13T11:10:57.149Z,50.37
2019-05-13T11:13:45.794Z,49.35
2019-05-13T11:16:02.341Z,49.18
2019-05-13T11:18:34.022Z,50.26
2019-05-13T11:21:04.935Z,49.64
2019-05-13T11:23:36.118Z,49.44
2019-05-13T11:26:06.814Z,50.49
2019-05-13T11:28:38.204Z,51.00
2019-05-13T11:31:08.953Z,50.79
2019-05-13T11:33:42.226Z,50.91
2019-05-13T11:36:18.877Z,50.68
2019-05-13T11:38:46.407Z,50.82
2019-05-13T11:41:17.865Z,49.83
2019-05-13T11:44:09.201Z,48.63
2019-05-13T11:46:22.740Z,48.40
2019-05-13T11:48:54.179Z,48.62
2019-05-13T11:51:25.690Z,47.76
2019-05-13T11:54:02.389Z,47.71
2019-05-13T11:56:33.975Z,48.53
2019-05-13T11:59:05.228Z,50.04
2019-05-13T12:01:36.769Z,49.93
2019-05-13T12:04:12.814Z,49.46
2019-05-13T12:06:49.035Z,48.26
2019-05-13T12:09:22.013Z,48.36
2019-05-13T12:11:54.281Z,48.96
2019-05-13T12:14:47.103Z,50.60
2019-05-13T12:17:05.384Z,52.57
2019-05-13T12:19:36.134Z,53.04
2019-05-13T12:22:07.459Z,53.62
2019-05-13T12:24:42.213Z,53.84
2019-05-13T12:27:12.740Z,54.32
2019-05-13T12:29:44.504Z,54.46
2019-05-13T12:32:15.802Z,54.70
2019-05-13T12:34:47.186Z,55.28
2019-05-13T12:37:17.897Z,55.25
2019-05-13T12:39:49.642Z,54.98
2019-05-13T12:42:22.832Z,55.02
2019-05-13T12:45:09.322Z,54.38
2019-05-13T12:47:33.530Z,53.29
2019-05-13T12:50:06.532Z,53.72
2019-05-13T12:52:39.369Z,52.68
2019-05-13T12:55:13.791Z,53.29
2019-05-13T12:57:43.158Z,52.70
2019-05-13T13:00:13.720Z,52.75
2019-05-13T13:02:50.411Z,52.97
2019-05-13T13:05:20.641Z,52.66
2019-05-13T13:08:13.474Z,51.79
2019-05-13T13:10:25.481Z,50.77
2019-05-13T13:12:56.345Z,51.11
2019-05-13T13:15:48.644Z,51.60
2019-05-13T13:18:22.187Z,51.35
2019-05-13T13:21:00.310Z,51.12
2019-05-13T13:23:27.579Z,51.04
2019-05-13T13:28:35.195Z,50.95
2019-05-13T13:31:08.225Z,51.23
2019-05-13T13:33:39.620Z,51.44
2019-05-13T13:36:15.847Z,51.08
2019-05-13T13:38:45.598Z,50.94
2019-05-13T13:41:22.659Z,51.11
2019-05-13T13:43:53.764Z,51.16
2019-05-13T13:49:00.037Z,50.96
2019-05-13T13:51:34.484Z,51.46
2019-05-13T13:54:12.528Z,50.50
2019-05-13T13:56:47.035Z,50.93
2019-05-13T13:59:24.571Z,49.46
2019-05-13T14:01:58.041Z,49.49
2019-05-13T14:04:29.659Z,49.35
2019-05-13T14:06:55.936Z,51.32
2019-05-13T14:07:11.710Z,50.55
2019-05-13T14:07:28.052Z,48.85
2019-05-13T14:09:37.587Z,49.01
2019-05-13T14:12:11.209Z,48.59
2019-05-13T14:14:43.811Z,48.83
2019-05-13T14:17:17.823Z,49.44
2019-05-13T14:19:52.360Z,49.86
2019-05-13T14:22:26.842Z,49.47
2019-05-13T14:24:58.295Z,50.89
2019-05-13T14:27:31.487Z,51.56
2019-05-13T14:30:03.736Z,51.91
2019-05-13T14:32:35.277Z,52.51
2019-05-13T14:35:12.142Z,53.15
2019-05-13T14:37:43.015Z,52.73
2019-05-13T14:40:14.281Z,52.55
2019-05-13T14:42:45.579Z,53.36
2019-05-13T14:45:16.344Z,53.76
2019-05-13T14:47:49.070Z,54.10
2019-05-13T14:50:21.418Z,53.92
2019-05-13T14:52:52.677Z,54.06
2019-05-13T14:55:23.447Z,53.79
2019-05-13T14:57:54.603Z,52.71
2019-05-13T15:00:25.389Z,52.24
2019-05-13T15:02:56.512Z,52.39
2019-05-13T15:05:31.165Z,52.58
2019-05-13T15:08:02.141Z,52.82
2019-05-13T15:10:33.754Z,53.37
2019-05-13T15:13:05.407Z,53.66
2019-05-13T15:15:36.221Z,52.66
2019-05-13T15:18:07.450Z,52.40
2019-05-13T15:20:38.937Z,52.67
2019-05-13T15:23:11.847Z,52.68
2019-05-13T15:25:42.474Z,52.62
2019-05-13T15:28:13.273Z,53.01
2019-05-13T15:30:44.438Z,53.21
2019-05-13T15:33:15.180Z,53.63
2019-05-13T15:35:46.352Z,53.98
2019-05-13T15:38:17.837Z,54.03
2019-05-13T15:40:49.091Z,54.00
2019-05-13T15:43:22.246Z,53.83
2019-05-13T15:45:52.619Z,54.16
2019-05-13T15:48:24.208Z,54.09
2019-05-13T15:50:55.050Z,53.99
2019-05-13T15:53:26.169Z,54.44
2019-05-13T15:55:57.054Z,54.37
2019-05-13T15:58:39.034Z,54.61
2019-05-13T16:01:02.887Z,54.79
2019-05-13T16:03:34.571Z,55.29
2019-05-13T16:06:06.120Z,55.87
2019-05-13T16:08:37.532Z,56.65
2019-05-13T16:11:08.207Z,57.88
2019-05-13T16:13:39.375Z,58.63
2019-05-13T16:16:12.163Z,59.11
2019-05-13T16:18:43.018Z,60.25
2019-05-13T16:21:13.730Z,60.32
2019-05-13T16:23:45.031Z,61.27
2019-05-13T16:26:18.016Z,60.97
2019-05-13T16:28:48.880Z,61.19
2019-05-13T16:31:20.037Z,61.89
2019-05-13T16:33:52.275Z,61.71
2019-05-13T16:36:23.749Z,61.97
2019-05-13T16:38:55.256Z,61.91
2019-05-13T16:41:26.094Z,62.03
2019-05-13T16:43:57.201Z,62.19
2019-05-13T16:46:28.554Z,61.67
2019-05-13T16:49:01.381Z,60.98
2019-05-13T16:51:32.806Z,60.69
2019-05-13T16:54:04.234Z,60.75
2019-05-13T16:56:34.836Z,60.67
2019-05-13T16:59:06.750Z,60.92
2019-05-13T17:01:38.072Z,61.25
2019-05-13T17:04:09.444Z,61.46
2019-05-13T17:06:41.650Z,61.37
2019-05-13T17:09:13.462Z,61.17
2019-05-13T17:11:44.228Z,60.82
2019-05-13T17:14:15.356Z,61.52
2019-05-13T17:16:46.129Z,61.28
2019-05-13T17:19:17.327Z,61.47
2019-05-13T17:21:51.804Z,61.41
2019-05-13T17:24:22.550Z,62.06
2019-05-13T17:26:55.457Z,62.86
2019-05-13T17:29:26.347Z,63.46
2019-05-13T17:31:57.481Z,64.41
2019-05-13T17:34:28.805Z,64.16
2019-05-13T17:37:03.509Z,63.93
2019-05-13T17:39:34.972Z,64.15
2019-05-13T17:42:07.618Z,64.32
2019-05-13T17:44:45.888Z,64.17
2019-05-13T17:47:13.133Z,64.84
2019-05-13T17:49:44.138Z,65.01
2019-05-13T17:52:17.202Z,65.82
2019-05-13T17:54:48.503Z,65.29
2019-05-13T17:57:21.683Z,65.18
2019-05-13T17:59:54.408Z,65.55
2019-05-13T18:02:26.446Z,65.68
2019-05-13T18:05:01.826Z,65.85
2019-05-13T18:07:33.172Z,65.38
2019-05-13T18:10:11.915Z,65.05
2019-05-13T18:12:42.712Z,64.81
2019-05-13T18:15:15.804Z,64.65
2019-05-13T18:17:47.539Z,64.78
2019-05-13T18:20:21.769Z,65.02
2019-05-13T18:22:57.888Z,65.11
2019-05-13T18:25:31.741Z,65.67
2019-05-13T18:28:02.735Z,65.71
2019-05-13T18:30:35.226Z,65.76
2019-05-13T18:33:11.773Z,66.10
2019-05-13T18:35:43.566Z,65.65
2019-05-13T18:38:15.214Z,66.21
2019-05-13T18:40:46.897Z,66.38
2019-05-13T18:43:21.542Z,66.48
2019-05-13T18:46:02.550Z,66.27
2019-05-13T18:48:38.253Z,66.03
2019-05-13T18:51:11.922Z,65.83
2019-05-13T18:53:43.264Z,66.20
2019-05-13T18:56:14.118Z,66.45
2019-05-13T18:59:13.434Z,67.03
2019-05-13T19:01:54.121Z,66.66
2019-05-13T19:04:28.029Z,66.73
2019-05-13T19:07:08.376Z,66.72
2019-05-13T19:09:41.717Z,66.73
2019-05-13T19:12:14.444Z,67.00
2019-05-13T19:14:51.526Z,67.10
2019-05-13T19:17:27.032Z,67.29
2019-05-13T19:19:59.132Z,67.56
2019-05-13T19:22:31.770Z,67.47
2019-05-13T19:25:06.413Z,67.57
2019-05-13T19:27:41.328Z,67.56
2019-05-13T19:30:13.068Z,67.32
2019-05-13T19:32:46.031Z,67.10
2019-05-13T19:35:17.501Z,67.09
2019-05-13T19:37:51.701Z,67.02
2019-05-13T19:40:31.783Z,67.58
2019-05-13T19:43:11.705Z,67.47
2019-05-13T19:45:53.711Z,67.53
2019-05-13T19:48:32.726Z,67.51
2019-05-13T19:51:05.889Z,67.45
2019-05-13T19:53:41.193Z,67.51
2019-05-13T19:56:13.053Z,67.77
2019-05-13T19:58:46.288Z,67.64
2019-05-13T20:01:32.183Z,67.69
2019-05-13T20:04:11.939Z,67.69
2019-05-13T20:06:48.459Z,68.22
2019-05-13T20:09:23.099Z,68.33
2019-05-13T20:12:04.003Z,68.28
2019-05-13T20:14:35.701Z,68.06
2019-05-13T20:17:07.852Z,67.85
2019-05-13T20:19:50.111Z,67.80
2019-05-13T20:22:17.031Z,67.63
2019-05-13T20:25:06.340Z,67.60
2019-05-13T20:27:39.503Z,67.75
2019-05-13T20:30:15.763Z,67.92
2019-05-13T20:32:51.515Z,67.70
2019-05-13T20:38:47.837Z,67.98
2019-05-13T20:41:33.884Z,68.47
2019-05-13T20:48:41.108Z,68.79
2019-05-13T21:07:32.531Z,70.33
2019-05-13T21:10:31.997Z,70.52
2019-05-13T21:56:52.185Z,72.08
2019-05-13T22:09:51.295Z,73.88
2019-05-13T22:20:03.848Z,73.67
2019-05-13T22:26:31.967Z,73.80
2019-05-13T22:29:28.608Z,74.40
2019-05-13T22:32:53.126Z,73.98
2019-05-13T22:35:41.912Z,74.30
2019-05-13T22:39:32.292Z,74.01
2019-05-13T22:42:13.257Z,74.32
2019-05-13T22:46:32.231Z,74.88
2019-05-13T22:48:08.911Z,74.76
2019-05-13T22:51:01.171Z,75.15
2019-05-13T22:54:27.842Z,75.31
2019-05-13T22:57:11.998Z,75.52
2019-05-13T23:00:25.246Z,75.51
2019-05-13T23:07:02.771Z,75.04
2019-05-13T23:10:06.595Z,75.36
2019-05-13T23:12:57.265Z,75.09
2019-05-13T23:15:44.800Z,75.42
2019-05-13T23:18:38.313Z,75.83
2019-05-13T23:21:27.583Z,76.47
2019-05-13T23:27:26.980Z,75.82
2019-05-13T23:30:11.686Z,76.22
2019-05-13T23:32:51.880Z,76.49
2019-05-13T23:35:55.893Z,76.54
2019-05-13T23:38:35.982Z,76.49
2019-05-13T23:41:11.785Z,76.35
2019-05-13T23:43:48.402Z,76.80
2019-05-13T23:46:28.724Z,76.51
2019-05-13T23:52:16.546Z,76.12
